Monday, October 16, 2017, 8:17 PM EDT
Back to Local

KMQE, Milton Blue Hill Observ

Location: Milton, MA, United States Lat: 42.217
Local Time: 8:17 PM EDT ( 0:17 GMT) Lon: -71.117
Time Zone: US/Eastern Elev: 629 ft

Show me the last for .
Show Coded

Time T Td Feel RH Dir Speed Gust Alt SLP Vis Weather Sky Remarks
2017-10-16 19:56 47 33 39 58 330° 10 22 30.05 30.09 0 6-hr Min Temp (8pm): 46.9°F
6-hr Max Temp (8pm): 54.0°F
2017-10-16 18:56 48 35 40 60 330° 13 25 30.03 30.06 0 None
2017-10-16 17:56 50 36 43 58 320° 13 22 29.99 30.02 0 None
2017-10-16 16:56 51 37 - 58 330° 12 18 29.98 30.01 0 None
2017-10-16 15:56 51 37 - 58 320° 13 24 29.96 29.99 0 None
2017-10-16 14:56 53 39 - 58 320° 12 16 29.93 29.96 0 None
2017-10-16 13:56 54 40 - 58 320° 15 23 29.93 29.96 0 6-hr Min Temp (2pm): 54.0°F
6-hr Max Temp (2pm): 59.0°F
2017-10-16 12:56 56 42 - 59 310° 12 18 29.92 29.95 0 None
2017-10-16 11:56 58 44 - 59 320° 9 17 29.92 29.95 0 None
2017-10-16 10:56 58 45 - 61 310° 6 17 29.92 29.95 0 None
2017-10-16 09:56 57 46 - 66 310° 10 20 29.87 29.89 0 None
2017-10-16 08:56 57 46 - 66 290° 13 21 29.88 29.90 0 None
2017-10-16 07:56 57 47 - 68 300° 13 20 29.82 29.85 0 6-hr Min Temp (8am): 57.0°F
6-hr Max Temp (8am): 66.9°F
2017-10-16 06:56 59 49 - 69 300° 17 23 29.79 29.81 0 None
2017-10-16 05:56 61 53 - 75 280° 13 25 29.78 29.80 0 None
2017-10-16 04:56 62 55 - 77 270° 14 20 29.77 29.79 0 None
2017-10-16 03:56 63 60 - 90 270° 13 21 29.75 29.77 0 None
2017-10-16 02:56 65 62 - 90 250° 10 17 29.74 29.76 0 None
2017-10-16 01:56 67 60 - 78 230° 16 25 29.75 29.77 0 Peak wind: 29 mph (26 kts) from 210° at 01 min
6-hr Min Temp (2am): 66.0°F
6-hr Max Temp (2am): 66.9°F
2017-10-16 00:56 66 60 - 81 220° 21 33 29.73 29.75 0 Peak wind: 36 mph (32 kts) from 210° at 38 min
24-hr Min Temp (1am): 57.9°F
24-hr Max Temp (1am): 72.0°F
2017-10-15 23:56 67 61 - 81 210° 23 35 29.73 29.75 0 Peak wind: 36 mph (32 kts) from 210° at 16 min
2017-10-15 22:56 67 61 - 81 210° 20 31 29.74 29.76 0 Peak wind: 39 mph (34 kts) from 200° at 36 min
2017-10-15 21:56 66 61 - 83 210° 23 36 29.74 29.76 0 Peak wind: 36 mph (32 kts) from 200° at 00 min
2017-10-15 20:56 66 61 - 83 200° 26 38 29.73 29.76 0 Peak wind: 41 mph (36 kts) from 190° at 30 min

Support USWX by starting your Amazon purchase here.